Newburgh, IN (47630)

4:16 PM CDT on September 02, 2014 (GMT -0500)
Summer Creek | Change Station
CLOSE
Current Station
Personal Weather Station
Location: Newburgh, IN
Elevation: 387 ft
Nearby Weather Stations

Elev 387 ft 37.97 °N, 87.37 °W | Updated 8 seconds ago

Overcast
Overcast
84.2 °F
Feels Like 93 °F
N
1.0
Wind Variable Wind from NNW
Gusts 1.0 mph

Today
High -- | Low -- °F
--% Chance of Precip.
Yesterday
High -- | Low -- °F
Precip. -- in
6:20 AM 7:17 PM
First Quarter, 55% visible
Pressure 29.91 in
Visibility 10.0 miles
Clouds Few 2900 ft
Few 3600 ft
Heat Index 93 °F
Dew Point 75 °F
Humidity 75%
Rainfall 0.98 in
Snow Depth Not available.
UV 4 out of 12
Pollen 7.00 out of 12
Air Quality Not available.
Flu Activity Not available.
METAR KEVV 022054Z 31007KT 10SM FEW029 FEW036 29/22 A2992 RMK AO2 SLP128 T02940222 58013

More Conditions Fewer Conditions

Pressure 29.91 in
Visibility 10.0 miles
Clouds Few 2900 ft
Few 3600 ft
Heat Index 93 °F
Dew Point 75 °F
Humidity 75%
Rainfall 0.98 in
Snow Depth Not available.
UV 4 out of 12
Pollen 7.00 out of 12
Air Quality Not available.
Flu Activity Not available.
METAR KEVV 022054Z 31007KT 10SM FEW029 FEW036 29/22 A2992 RMK AO2 SLP128 T02940222 58013

More Conditions Fewer Conditions

10-Day Weather Forecast

Almanac

Astronomy

Sep. 02, 2014 Rise Set
Actual Time 6:20 AM CDT 7:17 PM CDT
Civil Twilight 5:53 AM CDT 7:44 PM CDT
Nautical Twilight 5:21 AM CDT 8:15 PM CDT
Astronomical Twilight 4:48 AM CDT 8:48 PM CDT
Moon 1:57 PM CDT No Moon Set
Length of Visible Light 13h 50m
Length of Day
12h 57m
Tomorrow will be 2m 22s shorter.
First Quarter, 55% of the Moon is Illuminated
Today
First Quarter
Sep 8
Full
Sep 15
Last Quarter
Sep 24
New
Oct 1
First Quarter

Today's Extremes

State Highs State Lows

Community

WunderPhotos

Upload Photos

1,749,769 photos uploaded!

Nearby

Snow Depth

Station Depth Elevation
No new snow has been reported.

Earthquake Activity

City Distance Mag. Time & Date
No recent earthquake activity has been reported nearby.
Minimum magnitude displayed is 2.5.

Coastal Water Temperatures

Place Temperature
No Stations Reporting

Nearby Weather Stations